sensor_id;sensor_type;location;lat;lon;timestamp;P1;durP1;ratioP1;P2;durP2;ratioP2
14975;SDS011;7584;60.468;25.126;2023-03-01T00:01:06;8.53;;;1.37;;
14975;SDS011;7584;60.468;25.126;2023-03-01T00:03:32;5.83;;;1.40;;
14975;SDS011;7584;60.468;25.126;2023-03-01T00:05:57;4.13;;;1.10;;
14975;SDS011;7584;60.468;25.126;2023-03-01T00:08:23;7.20;;;1.53;;
14975;SDS011;7584;60.468;25.126;2023-03-01T00:10:48;7.97;;;1.20;;
14975;SDS011;7584;60.468;25.126;2023-03-01T00:13:13;5.40;;;1.17;;
14975;SDS011;7584;60.468;25.126;2023-03-01T00:15:39;4.93;;;1.20;;
14975;SDS011;7584;60.468;25.126;2023-03-01T00:18:06;7.00;;;1.17;;
14975;SDS011;7584;60.468;25.126;2023-03-01T00:20:31;9.57;;;1.60;;
14975;SDS011;7584;60.468;25.126;2023-03-01T00:22:57;7.47;;;1.33;;
14975;SDS011;7584;60.468;25.126;2023-03-01T00:25:22;5.40;;;1.30;;
14975;SDS011;7584;60.468;25.126;2023-03-01T00:27:47;5.23;;;1.00;;
14975;SDS011;7584;60.468;25.126;2023-03-01T00:30:14;4.17;;;1.20;;
14975;SDS011;7584;60.468;25.126;2023-03-01T00:32:39;9.20;;;1.53;;
14975;SDS011;7584;60.468;25.126;2023-03-01T00:35:04;4.80;;;1.60;;
14975;SDS011;7584;60.468;25.126;2023-03-01T00:37:30;5.00;;;1.47;;
14975;SDS011;7584;60.468;25.126;2023-03-01T00:39:56;4.43;;;1.10;;
14975;SDS011;7584;60.468;25.126;2023-03-01T00:42:21;6.00;;;1.10;;
14975;SDS011;7584;60.468;25.126;2023-03-01T00:44:47;3.67;;;1.27;;
14975;SDS011;7584;60.468;25.126;2023-03-01T00:47:12;6.27;;;1.40;;
14975;SDS011;7584;60.468;25.126;2023-03-01T00:49:38;8.67;;;1.33;;
14975;SDS011;7584;60.468;25.126;2023-03-01T00:52:04;8.23;;;1.20;;
14975;SDS011;7584;60.468;25.126;2023-03-01T00:54:29;5.60;;;1.20;;
14975;SDS011;7584;60.468;25.126;2023-03-01T00:56:54;11.07;;;1.47;;
14975;SDS011;7584;60.468;25.126;2023-03-01T00:59:20;4.87;;;1.00;;
14975;SDS011;7584;60.468;25.126;2023-03-01T01:01:45;6.77;;;1.77;;
14975;SDS011;7584;60.468;25.126;2023-03-01T01:04:11;7.63;;;1.67;;
14975;SDS011;7584;60.468;25.126;2023-03-01T01:06:41;8.40;;;1.23;;
14975;SDS011;7584;60.468;25.126;2023-03-01T01:09:08;5.63;;;1.40;;
14975;SDS011;7584;60.468;25.126;2023-03-01T01:11:34;5.33;;;1.50;;
14975;SDS011;7584;60.468;25.126;2023-03-01T01:14:01;6.07;;;1.30;;
14975;SDS011;7584;60.468;25.126;2023-03-01T01:16:27;7.97;;;1.57;;
14975;SDS011;7584;60.468;25.126;2023-03-01T01:18:52;5.60;;;1.10;;
14975;SDS011;7584;60.468;25.126;2023-03-01T01:21:18;5.07;;;1.30;;
14975;SDS011;7584;60.468;25.126;2023-03-01T01:23:45;9.63;;;1.47;;
14975;SDS011;7584;60.468;25.126;2023-03-01T01:26:11;9.23;;;1.40;;
14975;SDS011;7584;60.468;25.126;2023-03-01T01:28:37;8.53;;;1.37;;
14975;SDS011;7584;60.468;25.126;2023-03-01T01:31:03;7.33;;;1.27;;
14975;SDS011;7584;60.468;25.126;2023-03-01T01:33:28;13.80;;;2.30;;
14975;SDS011;7584;60.468;25.126;2023-03-01T01:35:53;6.20;;;1.40;;
14975;SDS011;7584;60.468;25.126;2023-03-01T01:38:19;9.73;;;1.90;;
14975;SDS011;7584;60.468;25.126;2023-03-01T01:40:45;4.47;;;1.43;;
14975;SDS011;7584;60.468;25.126;2023-03-01T01:43:16;6.10;;;1.47;;
14975;SDS011;7584;60.468;25.126;2023-03-01T01:45:43;4.57;;;1.10;;
14975;SDS011;7584;60.468;25.126;2023-03-01T01:48:10;6.23;;;0.87;;
14975;SDS011;7584;60.468;25.126;2023-03-01T01:50:38;4.07;;;1.20;;
14975;SDS011;7584;60.468;25.126;2023-03-01T01:53:12;4.10;;;0.90;;
14975;SDS011;7584;60.468;25.126;2023-03-01T01:55:41;3.77;;;1.03;;
14975;SDS011;7584;60.468;25.126;2023-03-01T01:58:07;5.73;;;1.00;;
14975;SDS011;7584;60.468;25.126;2023-03-01T02:00:33;9.67;;;1.70;;
14975;SDS011;7584;60.468;25.126;2023-03-01T02:03:00;4.57;;;1.40;;
14975;SDS011;7584;60.468;25.126;2023-03-01T02:07:52;6.07;;;1.40;;
14975;SDS011;7584;60.468;25.126;2023-03-01T02:10:17;7.23;;;1.37;;
14975;SDS011;7584;60.468;25.126;2023-03-01T02:12:43;7.67;;;1.03;;
14975;SDS011;7584;60.468;25.126;2023-03-01T02:15:08;5.10;;;1.30;;
14975;SDS011;7584;60.468;25.126;2023-03-01T02:17:34;8.60;;;1.10;;
14975;SDS011;7584;60.468;25.126;2023-03-01T02:22:28;5.43;;;1.30;;
14975;SDS011;7584;60.468;25.126;2023-03-01T02:27:35;7.47;;;1.27;;
14975;SDS011;7584;60.468;25.126;2023-03-01T02:30:02;6.43;;;1.40;;
14975;SDS011;7584;60.468;25.126;2023-03-01T02:32:27;7.20;;;1.40;;
14975;SDS011;7584;60.468;25.126;2023-03-01T02:34:54;5.70;;;1.00;;
14975;SDS011;7584;60.468;25.126;2023-03-01T02:37:20;7.10;;;1.20;;
14975;SDS011;7584;60.468;25.126;2023-03-01T02:39:50;4.00;;;1.07;;
14975;SDS011;7584;60.468;25.126;2023-03-01T02:42:21;4.87;;;0.93;;
14975;SDS011;7584;60.468;25.126;2023-03-01T02:44:49;7.83;;;1.23;;
14975;SDS011;7584;60.468;25.126;2023-03-01T02:47:14;6.20;;;1.20;;
14975;SDS011;7584;60.468;25.126;2023-03-01T02:49:40;2.50;;;1.20;;
14975;SDS011;7584;60.468;25.126;2023-03-01T02:52:07;8.87;;;1.80;;
14975;SDS011;7584;60.468;25.126;2023-03-01T02:54:46;3.40;;;1.47;;
14975;SDS011;7584;60.468;25.126;2023-03-01T02:57:12;3.70;;;0.90;;
14975;SDS011;7584;60.468;25.126;2023-03-01T02:59:37;6.93;;;1.10;;
14975;SDS011;7584;60.468;25.126;2023-03-01T03:02:08;7.50;;;1.43;;
14975;SDS011;7584;60.468;25.126;2023-03-01T03:04:45;3.10;;;1.10;;
14975;SDS011;7584;60.468;25.126;2023-03-01T03:07:10;1.87;;;0.73;;
14975;SDS011;7584;60.468;25.126;2023-03-01T03:09:35;4.77;;;0.90;;
14975;SDS011;7584;60.468;25.126;2023-03-01T03:12:01;7.70;;;1.40;;
14975;SDS011;7584;60.468;25.126;2023-03-01T03:14:26;5.27;;;1.57;;
14975;SDS011;7584;60.468;25.126;2023-03-01T03:16:51;5.33;;;1.00;;
14975;SDS011;7584;60.468;25.126;2023-03-01T03:19:17;6.23;;;0.93;;
14975;SDS011;7584;60.468;25.126;2023-03-01T03:21:43;10.47;;;1.20;;
14975;SDS011;7584;60.468;25.126;2023-03-01T03:24:08;4.70;;;1.10;;
14975;SDS011;7584;60.468;25.126;2023-03-01T03:26:34;2.47;;;0.97;;
14975;SDS011;7584;60.468;25.126;2023-03-01T03:28:59;3.23;;;1.00;;
14975;SDS011;7584;60.468;25.126;2023-03-01T03:31:25;6.20;;;1.47;;
14975;SDS011;7584;60.468;25.126;2023-03-01T03:33:50;3.20;;;0.90;;
14975;SDS011;7584;60.468;25.126;2023-03-01T03:36:16;3.23;;;1.30;;
14975;SDS011;7584;60.468;25.126;2023-03-01T03:38:42;4.73;;;1.10;;
14975;SDS011;7584;60.468;25.126;2023-03-01T03:41:08;5.53;;;1.10;;
14975;SDS011;7584;60.468;25.126;2023-03-01T03:43:34;5.73;;;2.40;;
14975;SDS011;7584;60.468;25.126;2023-03-01T03:46:00;6.17;;;2.73;;
14975;SDS011;7584;60.468;25.126;2023-03-01T03:48:26;1.70;;;1.13;;
14975;SDS011;7584;60.468;25.126;2023-03-01T03:50:52;3.33;;;1.30;;
14975;SDS011;7584;60.468;25.126;2023-03-01T03:53:18;3.47;;;1.20;;
14975;SDS011;7584;60.468;25.126;2023-03-01T03:55:43;4.10;;;1.20;;
14975;SDS011;7584;60.468;25.126;2023-03-01T03:58:09;8.30;;;1.37;;
14975;SDS011;7584;60.468;25.126;2023-03-01T04:00:36;3.47;;;1.30;;
14975;SDS011;7584;60.468;25.126;2023-03-01T04:03:02;4.80;;;1.30;;
14975;SDS011;7584;60.468;25.126;2023-03-01T04:05:27;9.83;;;1.67;;
14975;SDS011;7584;60.468;25.126;2023-03-01T04:07:53;4.90;;;1.27;;
14975;SDS011;7584;60.468;25.126;2023-03-01T04:10:26;7.90;;;1.07;;
14975;SDS011;7584;60.468;25.126;2023-03-01T04:12:52;4.77;;;1.57;;
14975;SDS011;7584;60.468;25.126;2023-03-01T04:15:17;5.27;;;1.20;;
14975;SDS011;7584;60.468;25.126;2023-03-01T04:17:43;6.17;;;1.20;;
14975;SDS011;7584;60.468;25.126;2023-03-01T04:20:13;6.73;;;1.13;;
14975;SDS011;7584;60.468;25.126;2023-03-01T04:22:39;7.83;;;1.40;;
14975;SDS011;7584;60.468;25.126;2023-03-01T04:25:05;4.77;;;1.17;;
14975;SDS011;7584;60.468;25.126;2023-03-01T04:27:34;7.83;;;1.33;;
14975;SDS011;7584;60.468;25.126;2023-03-01T04:29:59;4.00;;;0.80;;
14975;SDS011;7584;60.468;25.126;2023-03-01T04:32:25;4.20;;;1.83;;
14975;SDS011;7584;60.468;25.126;2023-03-01T04:34:50;4.23;;;1.33;;
14975;SDS011;7584;60.468;25.126;2023-03-01T04:37:15;4.03;;;1.40;;
14975;SDS011;7584;60.468;25.126;2023-03-01T04:39:41;4.20;;;1.23;;
14975;SDS011;7584;60.468;25.126;2023-03-01T04:42:13;4.43;;;1.03;;
14975;SDS011;7584;60.468;25.126;2023-03-01T04:44:39;4.47;;;1.40;;
14975;SDS011;7584;60.468;25.126;2023-03-01T04:47:04;8.33;;;1.33;;
14975;SDS011;7584;60.468;25.126;2023-03-01T04:49:30;3.97;;;1.07;;
14975;SDS011;7584;60.468;25.126;2023-03-01T04:51:56;6.60;;;1.73;;
14975;SDS011;7584;60.468;25.126;2023-03-01T04:54:23;7.40;;;1.30;;
14975;SDS011;7584;60.468;25.126;2023-03-01T04:56:48;6.33;;;1.50;;
14975;SDS011;7584;60.468;25.126;2023-03-01T04:59:14;4.97;;;1.43;;
14975;SDS011;7584;60.468;25.126;2023-03-01T05:01:39;4.83;;;1.37;;
14975;SDS011;7584;60.468;25.126;2023-03-01T05:04:09;5.03;;;1.73;;
14975;SDS011;7584;60.468;25.126;2023-03-01T05:06:38;7.83;;;1.57;;
14975;SDS011;7584;60.468;25.126;2023-03-01T05:09:03;11.50;;;1.73;;
14975;SDS011;7584;60.468;25.126;2023-03-01T05:11:28;9.80;;;3.10;;
14975;SDS011;7584;60.468;25.126;2023-03-01T05:13:58;6.63;;;1.87;;
14975;SDS011;7584;60.468;25.126;2023-03-01T05:16:24;2.53;;;1.57;;
14975;SDS011;7584;60.468;25.126;2023-03-01T05:18:49;4.93;;;1.40;;
14975;SDS011;7584;60.468;25.126;2023-03-01T05:21:16;4.67;;;1.60;;
14975;SDS011;7584;60.468;25.126;2023-03-01T05:23:41;4.30;;;1.97;;
14975;SDS011;7584;60.468;25.126;2023-03-01T05:26:07;3.13;;;1.60;;
14975;SDS011;7584;60.468;25.126;2023-03-01T05:28:32;9.00;;;2.23;;
14975;SDS011;7584;60.468;25.126;2023-03-01T05:30:58;7.00;;;2.97;;
14975;SDS011;7584;60.468;25.126;2023-03-01T05:33:24;6.70;;;2.27;;
14975;SDS011;7584;60.468;25.126;2023-03-01T05:35:50;5.97;;;1.20;;
14975;SDS011;7584;60.468;25.126;2023-03-01T05:38:16;5.67;;;1.43;;
14975;SDS011;7584;60.468;25.126;2023-03-01T05:40:42;11.00;;;1.63;;
14975;SDS011;7584;60.468;25.126;2023-03-01T05:43:11;5.97;;;1.63;;
14975;SDS011;7584;60.468;25.126;2023-03-01T05:45:39;8.13;;;1.60;;
14975;SDS011;7584;60.468;25.126;2023-03-01T05:48:05;6.30;;;2.60;;
14975;SDS011;7584;60.468;25.126;2023-03-01T05:50:35;6.03;;;2.20;;
14975;SDS011;7584;60.468;25.126;2023-03-01T05:53:01;6.87;;;2.17;;
14975;SDS011;7584;60.468;25.126;2023-03-01T05:55:27;8.47;;;2.37;;
14975;SDS011;7584;60.468;25.126;2023-03-01T05:57:53;13.90;;;2.23;;
14975;SDS011;7584;60.468;25.126;2023-03-01T06:00:19;3.77;;;1.53;;
14975;SDS011;7584;60.468;25.126;2023-03-01T06:02:47;3.50;;;1.53;;
14975;SDS011;7584;60.468;25.126;2023-03-01T06:05:12;5.23;;;1.97;;
14975;SDS011;7584;60.468;25.126;2023-03-01T06:07:38;6.53;;;1.53;;
14975;SDS011;7584;60.468;25.126;2023-03-01T06:10:04;7.13;;;1.77;;
14975;SDS011;7584;60.468;25.126;2023-03-01T06:12:30;4.83;;;1.83;;
14975;SDS011;7584;60.468;25.126;2023-03-01T06:14:55;9.77;;;2.30;;
14975;SDS011;7584;60.468;25.126;2023-03-01T06:17:20;5.27;;;1.33;;
14975;SDS011;7584;60.468;25.126;2023-03-01T06:19:46;2.90;;;1.20;;
14975;SDS011;7584;60.468;25.126;2023-03-01T06:22:12;3.17;;;1.30;;
14975;SDS011;7584;60.468;25.126;2023-03-01T06:24:37;6.00;;;1.37;;
14975;SDS011;7584;60.468;25.126;2023-03-01T06:27:02;6.07;;;1.40;;
14975;SDS011;7584;60.468;25.126;2023-03-01T06:29:28;3.30;;;1.10;;
14975;SDS011;7584;60.468;25.126;2023-03-01T06:31:53;5.13;;;3.17;;
14975;SDS011;7584;60.468;25.126;2023-03-01T06:34:18;10.43;;;5.73;;
14975;SDS011;7584;60.468;25.126;2023-03-01T06:36:44;5.33;;;2.30;;
14975;SDS011;7584;60.468;25.126;2023-03-01T06:39:09;6.40;;;1.70;;
14975;SDS011;7584;60.468;25.126;2023-03-01T06:41:35;2.37;;;1.60;;
14975;SDS011;7584;60.468;25.126;2023-03-01T06:44:00;6.60;;;1.20;;
14975;SDS011;7584;60.468;25.126;2023-03-01T06:46:25;3.13;;;1.40;;
14975;SDS011;7584;60.468;25.126;2023-03-01T06:48:51;1.87;;;1.17;;
14975;SDS011;7584;60.468;25.126;2023-03-01T06:51:16;2.97;;;0.93;;
14975;SDS011;7584;60.468;25.126;2023-03-01T06:53:41;3.40;;;0.80;;
14975;SDS011;7584;60.468;25.126;2023-03-01T06:56:06;4.07;;;1.33;;
14975;SDS011;7584;60.468;25.126;2023-03-01T06:58:32;4.17;;;0.90;;
14975;SDS011;7584;60.468;25.126;2023-03-01T07:00:57;2.77;;;0.97;;
14975;SDS011;7584;60.468;25.126;2023-03-01T07:03:22;4.70;;;1.10;;
14975;SDS011;7584;60.468;25.126;2023-03-01T07:05:48;3.47;;;0.90;;
14975;SDS011;7584;60.468;25.126;2023-03-01T07:08:14;3.83;;;0.70;;
14975;SDS011;7584;60.468;25.126;2023-03-01T07:10:39;3.17;;;0.80;;
14975;SDS011;7584;60.468;25.126;2023-03-01T07:13:04;4.43;;;1.20;;
14975;SDS011;7584;60.468;25.126;2023-03-01T07:15:31;1.77;;;0.73;;
14975;SDS011;7584;60.468;25.126;2023-03-01T07:17:57;4.77;;;1.07;;
14975;SDS011;7584;60.468;25.126;2023-03-01T07:20:23;3.53;;;0.70;;
14975;SDS011;7584;60.468;25.126;2023-03-01T07:22:50;2.00;;;0.90;;
14975;SDS011;7584;60.468;25.126;2023-03-01T07:25:15;4.10;;;0.83;;
14975;SDS011;7584;60.468;25.126;2023-03-01T07:27:41;2.50;;;1.00;;
14975;SDS011;7584;60.468;25.126;2023-03-01T07:30:06;4.33;;;1.40;;
14975;SDS011;7584;60.468;25.126;2023-03-01T07:32:32;2.70;;;0.83;;
14975;SDS011;7584;60.468;25.126;2023-03-01T07:34:57;6.20;;;1.20;;
14975;SDS011;7584;60.468;25.126;2023-03-01T07:37:22;3.33;;;0.90;;
14975;SDS011;7584;60.468;25.126;2023-03-01T07:39:48;3.80;;;1.10;;
14975;SDS011;7584;60.468;25.126;2023-03-01T07:42:13;2.07;;;0.87;;
14975;SDS011;7584;60.468;25.126;2023-03-01T07:44:38;2.63;;;0.80;;
14975;SDS011;7584;60.468;25.126;2023-03-01T07:47:04;1.90;;;0.60;;
14975;SDS011;7584;60.468;25.126;2023-03-01T07:49:29;1.00;;;0.60;;
14975;SDS011;7584;60.468;25.126;2023-03-01T07:51:54;3.97;;;0.63;;
14975;SDS011;7584;60.468;25.126;2023-03-01T07:54:20;1.60;;;0.60;;
14975;SDS011;7584;60.468;25.126;2023-03-01T07:56:45;1.53;;;0.63;;
14975;SDS011;7584;60.468;25.126;2023-03-01T07:59:10;5.43;;;0.70;;
14975;SDS011;7584;60.468;25.126;2023-03-01T08:01:36;1.13;;;0.53;;
14975;SDS011;7584;60.468;25.126;2023-03-01T08:04:01;4.60;;;0.77;;
14975;SDS011;7584;60.468;25.126;2023-03-01T08:06:26;1.00;;;0.50;;
14975;SDS011;7584;60.468;25.126;2023-03-01T08:08:52;1.77;;;0.57;;
14975;SDS011;7584;60.468;25.126;2023-03-01T08:11:20;1.70;;;0.70;;
14975;SDS011;7584;60.468;25.126;2023-03-01T08:13:46;2.53;;;0.60;;
14975;SDS011;7584;60.468;25.126;2023-03-01T08:16:13;3.93;;;0.90;;
14975;SDS011;7584;60.468;25.126;2023-03-01T08:18:38;2.80;;;0.70;;
14975;SDS011;7584;60.468;25.126;2023-03-01T08:21:04;2.07;;;0.60;;
14975;SDS011;7584;60.468;25.126;2023-03-01T08:23:30;2.10;;;0.50;;
14975;SDS011;7584;60.468;25.126;2023-03-01T08:26:02;1.93;;;0.70;;
14975;SDS011;7584;60.468;25.126;2023-03-01T08:28:28;3.20;;;1.00;;
14975;SDS011;7584;60.468;25.126;2023-03-01T08:30:53;3.43;;;1.30;;
14975;SDS011;7584;60.468;25.126;2023-03-01T08:33:18;4.47;;;1.33;;
14975;SDS011;7584;60.468;25.126;2023-03-01T08:35:44;3.97;;;0.93;;
14975;SDS011;7584;60.468;25.126;2023-03-01T08:38:09;2.23;;;0.77;;
14975;SDS011;7584;60.468;25.126;2023-03-01T08:40:34;4.60;;;0.93;;
14975;SDS011;7584;60.468;25.126;2023-03-01T08:42:59;2.07;;;1.10;;
14975;SDS011;7584;60.468;25.126;2023-03-01T08:45:25;1.90;;;0.80;;
14975;SDS011;7584;60.468;25.126;2023-03-01T08:47:52;1.33;;;0.57;;
14975;SDS011;7584;60.468;25.126;2023-03-01T08:50:17;1.90;;;0.67;;
14975;SDS011;7584;60.468;25.126;2023-03-01T08:52:42;2.10;;;0.60;;
14975;SDS011;7584;60.468;25.126;2023-03-01T08:55:08;3.80;;;0.70;;
14975;SDS011;7584;60.468;25.126;2023-03-01T08:57:33;2.20;;;0.80;;
14975;SDS011;7584;60.468;25.126;2023-03-01T08:59:58;0.63;;;0.40;;
14975;SDS011;7584;60.468;25.126;2023-03-01T09:02:23;2.60;;;0.47;;
14975;SDS011;7584;60.468;25.126;2023-03-01T09:04:49;2.50;;;0.70;;
14975;SDS011;7584;60.468;25.126;2023-03-01T09:07:14;2.20;;;0.40;;
14975;SDS011;7584;60.468;25.126;2023-03-01T09:09:39;1.93;;;0.40;;
14975;SDS011;7584;60.468;25.126;2023-03-01T09:12:05;2.93;;;0.40;;
14975;SDS011;7584;60.468;25.126;2023-03-01T09:14:30;1.33;;;0.40;;
14975;SDS011;7584;60.468;25.126;2023-03-01T09:16:56;4.63;;;1.30;;
14975;SDS011;7584;60.468;25.126;2023-03-01T09:19:21;0.93;;;0.43;;
14975;SDS011;7584;60.468;25.126;2023-03-01T09:21:46;2.90;;;0.50;;
14975;SDS011;7584;60.468;25.126;2023-03-01T09:24:18;2.30;;;0.50;;
14975;SDS011;7584;60.468;25.126;2023-03-01T09:26:43;1.60;;;0.50;;
14975;SDS011;7584;60.468;25.126;2023-03-01T09:29:11;1.90;;;0.47;;
14975;SDS011;7584;60.468;25.126;2023-03-01T09:31:36;0.83;;;0.30;;
14975;SDS011;7584;60.468;25.126;2023-03-01T09:34:02;2.47;;;0.60;;
14975;SDS011;7584;60.468;25.126;2023-03-01T09:36:27;1.50;;;0.40;;
14975;SDS011;7584;60.468;25.126;2023-03-01T09:38:53;1.10;;;0.40;;
14975;SDS011;7584;60.468;25.126;2023-03-01T09:43:48;0.47;;;0.33;;
14975;SDS011;7584;60.468;25.126;2023-03-01T09:46:19;0.67;;;0.30;;
14975;SDS011;7584;60.468;25.126;2023-03-01T09:48:50;1.80;;;0.50;;
14975;SDS011;7584;60.468;25.126;2023-03-01T09:51:22;0.77;;;0.33;;
14975;SDS011;7584;60.468;25.126;2023-03-01T09:53:48;0.60;;;0.30;;
14975;SDS011;7584;60.468;25.126;2023-03-01T09:56:19;2.07;;;0.30;;
14975;SDS011;7584;60.468;25.126;2023-03-01T10:01:34;1.07;;;0.40;;
14975;SDS011;7584;60.468;25.126;2023-03-01T10:04:12;2.07;;;0.70;;
14975;SDS011;7584;60.468;25.126;2023-03-01T10:06:45;1.17;;;0.70;;
14975;SDS011;7584;60.468;25.126;2023-03-01T10:09:16;1.37;;;0.60;;
14975;SDS011;7584;60.468;25.126;2023-03-01T10:11:43;1.53;;;0.40;;
14975;SDS011;7584;60.468;25.126;2023-03-01T10:22:21;2.70;;;0.60;;
14975;SDS011;7584;60.468;25.126;2023-03-01T10:24:48;23.30;;;5.38;;
14975;SDS011;7584;60.468;25.126;2023-03-01T10:27:17;1.38;;;0.52;;
14975;SDS011;7584;60.468;25.126;2023-03-01T10:29:48;0.98;;;0.50;;
14975;SDS011;7584;60.468;25.126;2023-03-01T10:32:15;2.25;;;0.90;;
14975;SDS011;7584;60.468;25.126;2023-03-01T10:34:41;1.02;;;0.50;;
14975;SDS011;7584;60.468;25.126;2023-03-01T10:39:34;1.42;;;0.60;;
14975;SDS011;7584;60.468;25.126;2023-03-01T10:42:04;1.02;;;0.50;;
14975;SDS011;7584;60.468;25.126;2023-03-01T10:44:43;2.58;;;1.00;;
14975;SDS011;7584;60.468;25.126;2023-03-01T10:47:27;1.57;;;0.70;;
14975;SDS011;7584;60.468;25.126;2023-03-01T10:52:19;2.40;;;0.50;;
14975;SDS011;7584;60.468;25.126;2023-03-01T10:55:02;1.20;;;0.50;;
14975;SDS011;7584;60.468;25.126;2023-03-01T10:57:35;1.77;;;0.40;;
14975;SDS011;7584;60.468;25.126;2023-03-01T11:00:15;1.30;;;0.50;;
14975;SDS011;7584;60.468;25.126;2023-03-01T11:02:42;1.13;;;0.60;;
14975;SDS011;7584;60.468;25.126;2023-03-01T11:07:50;1.60;;;0.60;;
14975;SDS011;7584;60.468;25.126;2023-03-01T11:10:25;1.87;;;0.60;;
14975;SDS011;7584;60.468;25.126;2023-03-01T11:12:51;1.43;;;0.77;;
14975;SDS011;7584;60.468;25.126;2023-03-01T11:15:27;2.00;;;0.60;;
14975;SDS011;7584;60.468;25.126;2023-03-01T11:17:53;1.83;;;0.53;;
14975;SDS011;7584;60.468;25.126;2023-03-01T11:20:35;1.93;;;0.53;;
14975;SDS011;7584;60.468;25.126;2023-03-01T11:23:03;1.43;;;0.53;;
14975;SDS011;7584;60.468;25.126;2023-03-01T11:25:35;3.13;;;0.63;;
14975;SDS011;7584;60.468;25.126;2023-03-01T11:28:01;2.43;;;0.70;;
14975;SDS011;7584;60.468;25.126;2023-03-01T11:35:29;0.67;;;0.30;;
14975;SDS011;7584;60.468;25.126;2023-03-01T11:40:37;1.57;;;0.50;;
14975;SDS011;7584;60.468;25.126;2023-03-01T11:46:08;2.53;;;0.63;;
14975;SDS011;7584;60.468;25.126;2023-03-01T11:51:25;2.10;;;1.00;;
14975;SDS011;7584;60.468;25.126;2023-03-01T11:56:27;1.93;;;0.50;;
14975;SDS011;7584;60.468;25.126;2023-03-01T12:14:34;2.30;;;0.30;;
14975;SDS011;7584;60.468;25.126;2023-03-01T12:24:51;2.43;;;0.63;;
14975;SDS011;7584;60.468;25.126;2023-03-01T12:27:26;0.70;;;0.40;;
14975;SDS011;7584;60.468;25.126;2023-03-01T12:32:54;1.60;;;0.40;;
14975;SDS011;7584;60.468;25.126;2023-03-01T12:35:27;2.97;;;0.40;;
14975;SDS011;7584;60.468;25.126;2023-03-01T12:41:15;3.37;;;0.67;;
14975;SDS011;7584;60.468;25.126;2023-03-01T12:50:54;1.00;;;0.50;;
14975;SDS011;7584;60.468;25.126;2023-03-01T12:53:31;1.00;;;0.50;;
14975;SDS011;7584;60.468;25.126;2023-03-01T12:56:18;1.23;;;0.43;;
14975;SDS011;7584;60.468;25.126;2023-03-01T13:06:25;1.33;;;0.50;;
14975;SDS011;7584;60.468;25.126;2023-03-01T13:11:22;0.80;;;0.50;;
14975;SDS011;7584;60.468;25.126;2023-03-01T13:13:48;2.83;;;0.53;;
14975;SDS011;7584;60.468;25.126;2023-03-01T13:16:21;1.27;;;0.50;;
14975;SDS011;7584;60.468;25.126;2023-03-01T13:18:47;0.80;;;0.40;;
14975;SDS011;7584;60.468;25.126;2023-03-01T13:21:13;1.27;;;0.60;;
14975;SDS011;7584;60.468;25.126;2023-03-01T13:23:54;0.80;;;0.50;;
14975;SDS011;7584;60.468;25.126;2023-03-01T13:26:19;1.13;;;0.60;;
14975;SDS011;7584;60.468;25.126;2023-03-01T13:33:45;1.53;;;0.50;;
14975;SDS011;7584;60.468;25.126;2023-03-01T13:36:11;0.97;;;0.60;;
14975;SDS011;7584;60.468;25.126;2023-03-01T13:41:48;3.13;;;0.50;;
14975;SDS011;7584;60.468;25.126;2023-03-01T13:47:15;1.90;;;0.40;;
14975;SDS011;7584;60.468;25.126;2023-03-01T13:49:59;1.37;;;0.40;;
14975;SDS011;7584;60.468;25.126;2023-03-01T13:55:05;0.60;;;0.40;;
14975;SDS011;7584;60.468;25.126;2023-03-01T13:57:35;1.40;;;0.40;;
14975;SDS011;7584;60.468;25.126;2023-03-01T14:00:02;0.60;;;0.40;;
14975;SDS011;7584;60.468;25.126;2023-03-01T14:02:29;1.07;;;0.47;;
14975;SDS011;7584;60.468;25.126;2023-03-01T14:04:58;1.40;;;0.40;;
14975;SDS011;7584;60.468;25.126;2023-03-01T14:07:24;1.40;;;0.40;;
14975;SDS011;7584;60.468;25.126;2023-03-01T14:09:55;1.80;;;0.60;;
14975;SDS011;7584;60.468;25.126;2023-03-01T14:14:52;1.77;;;0.60;;
14975;SDS011;7584;60.468;25.126;2023-03-01T14:19:45;1.00;;;0.50;;
14975;SDS011;7584;60.468;25.126;2023-03-01T14:24:40;1.37;;;0.60;;
14975;SDS011;7584;60.468;25.126;2023-03-01T14:27:12;1.50;;;0.73;;
14975;SDS011;7584;60.468;25.126;2023-03-01T14:29:38;1.37;;;0.70;;
14975;SDS011;7584;60.468;25.126;2023-03-01T14:34:35;2.10;;;0.60;;
14975;SDS011;7584;60.468;25.126;2023-03-01T14:37:10;1.60;;;0.80;;
14975;SDS011;7584;60.468;25.126;2023-03-01T14:39:36;2.43;;;0.67;;
14975;SDS011;7584;60.468;25.126;2023-03-01T14:42:04;2.37;;;0.67;;
14975;SDS011;7584;60.468;25.126;2023-03-01T14:44:29;1.83;;;0.70;;
14975;SDS011;7584;60.468;25.126;2023-03-01T14:46:55;0.50;;;0.40;;
14975;SDS011;7584;60.468;25.126;2023-03-01T14:49:24;2.63;;;0.70;;
14975;SDS011;7584;60.468;25.126;2023-03-01T14:51:57;2.80;;;0.60;;
14975;SDS011;7584;60.468;25.126;2023-03-01T14:57:05;1.13;;;0.50;;
14975;SDS011;7584;60.468;25.126;2023-03-01T14:59:32;1.67;;;0.43;;
14975;SDS011;7584;60.468;25.126;2023-03-01T15:01:58;0.70;;;0.27;;
14975;SDS011;7584;60.468;25.126;2023-03-01T15:04:24;3.57;;;0.40;;
14975;SDS011;7584;60.468;25.126;2023-03-01T15:06:51;0.87;;;0.50;;
14975;SDS011;7584;60.468;25.126;2023-03-01T15:09:17;2.40;;;0.57;;
14975;SDS011;7584;60.468;25.126;2023-03-01T15:11:43;5.37;;;0.80;;
14975;SDS011;7584;60.468;25.126;2023-03-01T15:16:53;1.93;;;0.70;;
14975;SDS011;7584;60.468;25.126;2023-03-01T15:19:18;1.20;;;0.47;;
14975;SDS011;7584;60.468;25.126;2023-03-01T15:21:44;2.20;;;0.50;;
14975;SDS011;7584;60.468;25.126;2023-03-01T15:26:44;0.60;;;0.53;;
14975;SDS011;7584;60.468;25.126;2023-03-01T15:29:32;2.53;;;0.90;;
14975;SDS011;7584;60.468;25.126;2023-03-01T15:36:49;2.10;;;0.67;;
14975;SDS011;7584;60.468;25.126;2023-03-01T15:42:02;1.03;;;0.80;;
14975;SDS011;7584;60.468;25.126;2023-03-01T15:44:29;2.23;;;0.60;;
14975;SDS011;7584;60.468;25.126;2023-03-01T15:46:54;1.47;;;0.60;;
14975;SDS011;7584;60.468;25.126;2023-03-01T15:51:49;1.33;;;0.67;;
14975;SDS011;7584;60.468;25.126;2023-03-01T15:54:20;2.13;;;0.80;;
14975;SDS011;7584;60.468;25.126;2023-03-01T15:56:46;1.27;;;0.60;;
14975;SDS011;7584;60.468;25.126;2023-03-01T15:59:12;4.60;;;0.77;;
14975;SDS011;7584;60.468;25.126;2023-03-01T16:01:41;2.00;;;0.87;;
14975;SDS011;7584;60.468;25.126;2023-03-01T16:04:06;1.50;;;0.50;;
14975;SDS011;7584;60.468;25.126;2023-03-01T16:06:31;3.00;;;0.70;;
14975;SDS011;7584;60.468;25.126;2023-03-01T16:08:57;2.50;;;0.70;;
14975;SDS011;7584;60.468;25.126;2023-03-01T16:11:22;1.90;;;0.80;;
14975;SDS011;7584;60.468;25.126;2023-03-01T16:13:48;3.33;;;0.83;;
14975;SDS011;7584;60.468;25.126;2023-03-01T16:16:14;1.33;;;0.60;;
14975;SDS011;7584;60.468;25.126;2023-03-01T16:18:41;5.37;;;1.07;;
14975;SDS011;7584;60.468;25.126;2023-03-01T16:21:09;0.80;;;0.50;;
14975;SDS011;7584;60.468;25.126;2023-03-01T16:23:35;1.53;;;0.60;;
14975;SDS011;7584;60.468;25.126;2023-03-01T16:26:00;1.80;;;0.73;;
14975;SDS011;7584;60.468;25.126;2023-03-01T16:28:26;2.80;;;0.90;;
14975;SDS011;7584;60.468;25.126;2023-03-01T16:30:51;2.27;;;0.87;;
14975;SDS011;7584;60.468;25.126;2023-03-01T16:33:16;1.00;;;0.63;;
14975;SDS011;7584;60.468;25.126;2023-03-01T16:35:42;1.73;;;0.63;;
14975;SDS011;7584;60.468;25.126;2023-03-01T16:38:08;1.83;;;0.90;;
14975;SDS011;7584;60.468;25.126;2023-03-01T16:40:34;2.47;;;1.10;;
14975;SDS011;7584;60.468;25.126;2023-03-01T16:42:59;3.47;;;0.90;;
14975;SDS011;7584;60.468;25.126;2023-03-01T16:45:32;1.70;;;0.87;;
14975;SDS011;7584;60.468;25.126;2023-03-01T16:47:58;1.77;;;0.77;;
14975;SDS011;7584;60.468;25.126;2023-03-01T16:50:23;4.57;;;0.70;;
14975;SDS011;7584;60.468;25.126;2023-03-01T16:52:49;1.77;;;1.10;;
14975;SDS011;7584;60.468;25.126;2023-03-01T16:55:14;4.37;;;0.80;;
14975;SDS011;7584;60.468;25.126;2023-03-01T16:57:39;1.30;;;0.83;;
14975;SDS011;7584;60.468;25.126;2023-03-01T17:00:06;2.63;;;1.10;;